»·PEaware :: N13W KSBP-KSNA

N13W :: KSBP-KSNA

FLIGHT INFORMATION

Flight Status: Arrived
Operator: Privately registered:
United States
More flights under this callsign
Pilot: Will N. (25416)
Aircraft: SOCATA TBM-900
(TBM9)
More flights by this aircraft type
Origin: KSBP San Luis Co Regl
United States
Destination: KSNA John Wayne-Orange Co
United States
More flights between these airports :: More routes between these airports
Route: RZS VTU WEEZL SXC SLI
File this flight plan on PilotEdge
Remarks: RMK / SIMBRIEF
Altitude:
(Current/Filed)
29,000ft
Speed:
(Current/Filed)
318kts
Departed: 08-Nov-19 12:55 AM
Arrived: 08-Nov-19 01:45 AM
Distance/Time
Traveled:
166nm/0:50
Distance/Time
To Go:
Arrived

Flight Plot

Page will automatically refresh every two minutes.

Flight plan parsing failed; only flown route is shown


Map Options




Map Legend


Flown Route
Filed Route
Departure Airport
Arrival Airport
Navaid (VOR, NDB)
Fix

Horizontal Profiles

Position Reports

Time Latitude Longitude Heading Altitude Ground
Speed
08-Nov-19 00:45 35.238232 -120.640030 294 215ft 0kts
08-Nov-19 00:46 35.238232 -120.640030 294 215ft 0kts
08-Nov-19 00:47 35.238232 -120.640030 294 215ft 0kts
08-Nov-19 00:48 35.238232 -120.640030 294 215ft 0kts
08-Nov-19 00:49 35.238232 -120.640030 294 215ft 0kts
08-Nov-19 00:50 35.238232 -120.640030 294 215ft 0kts
08-Nov-19 00:51 35.238248 -120.640169 260 215ft 4kts
08-Nov-19 00:52 35.236946 -120.638386 123 215ft 16kts
08-Nov-19 00:53 35.233994 -120.633215 124 215ft 17kts
08-Nov-19 00:54 35.233248 -120.632327 200 215ft 0kts
08-Nov-19 00:54 35.233468 -120.634154 306 215ft 53kts
08-Nov-19 00:56 35.255774 -120.675889 302 2064ft 146kts
08-Nov-19 00:56 35.250514 -120.711356 222 4022ft 154kts
08-Nov-19 00:58 35.212684 -120.754040 222 6874ft 163kts
08-Nov-19 00:59 35.178980 -120.791181 193 9368ft 164kts
08-Nov-19 00:59 35.157003 -120.763284 114 11308ft 158kts
08-Nov-19 01:01 35.128070 -120.708581 126 13451ft 179kts
08-Nov-19 01:01 35.102061 -120.667738 127 15030ft 184kts
08-Nov-19 01:02 35.070135 -120.618678 126 16901ft 186kts
08-Nov-19 01:03 35.037533 -120.568801 126 18520ft 190kts
08-Nov-19 01:04 35.002174 -120.514752 126 19229ft 234kts
08-Nov-19 01:05 34.958073 -120.447540 126 19205ft 265kts
08-Nov-19 01:06 34.911401 -120.376551 126 19188ft 268kts
08-Nov-19 01:07 34.864982 -120.306066 126 19193ft 268kts
08-Nov-19 01:08 34.817904 -120.234719 126 19190ft 269kts
08-Nov-19 01:09 34.770951 -120.163704 126 19187ft 269kts
08-Nov-19 01:10 34.723853 -120.092633 126 19184ft 269kts
08-Nov-19 01:11 34.676727 -120.021655 126 19183ft 269kts
08-Nov-19 01:12 34.629707 -119.950982 126 19176ft 269kts
08-Nov-19 01:13 34.582490 -119.880150 126 19165ft 269kts
08-Nov-19 01:14 34.535515 -119.809822 126 19153ft 269kts
08-Nov-19 01:15 34.491090 -119.736926 121 19145ft 267kts
08-Nov-19 01:16 34.450241 -119.661609 121 19143ft 267kts
08-Nov-19 01:17 34.409191 -119.586074 121 19144ft 267kts
08-Nov-19 01:18 34.368391 -119.511168 121 19146ft 267kts
08-Nov-19 01:19 34.327231 -119.435752 121 19153ft 267kts
08-Nov-19 01:20 34.286337 -119.360979 121 19158ft 267kts
08-Nov-19 01:21 34.245289 -119.286083 121 19165ft 267kts
08-Nov-19 01:22 34.203772 -119.210774 122 19165ft 268kts
08-Nov-19 01:23 34.162203 -119.136239 122 19165ft 268kts
08-Nov-19 01:24 34.120519 -119.061695 122 19164ft 268kts
08-Nov-19 01:25 34.078433 -118.986601 121 18666ft 277kts
08-Nov-19 01:26 34.034204 -118.907817 122 17357ft 289kts
08-Nov-19 01:27 33.988260 -118.826184 122 16027ft 297kts
08-Nov-19 01:28 33.941442 -118.743205 122 14684ft 299kts
08-Nov-19 01:29 33.894777 -118.660676 122 13369ft 296kts
08-Nov-19 01:30 33.848532 -118.579073 122 12074ft 290kts
08-Nov-19 01:31 33.802940 -118.498795 122 10804ft 288kts
08-Nov-19 01:32 33.758120 -118.420053 122 9565ft 276kts
08-Nov-19 01:33 33.715527 -118.345380 122 8405ft 272kts
08-Nov-19 01:34 33.672951 -118.270884 123 7232ft 267kts
08-Nov-19 01:35 33.632543 -118.200330 123 6144ft 247kts
08-Nov-19 01:36 33.594999 -118.134896 123 5146ft 230kts
08-Nov-19 01:37 33.559736 -118.073541 123 4206ft 218kts
08-Nov-19 01:38 33.525741 -118.014490 123 3284ft 211kts
08-Nov-19 01:39 33.528849 -117.960329 23 2350ft 200kts
08-Nov-19 01:40 33.577345 -117.930999 27 1622ft 166kts
08-Nov-19 01:41 33.613103 -117.908374 27 1588ft 133kts
08-Nov-19 01:42 33.641128 -117.890796 28 1023ft 102kts
08-Nov-19 01:43 33.664755 -117.875719 29 154ft 87kts
08-Nov-19 01:44 33.677928 -117.868071 311 59ft 11kts
08-Nov-19 01:45 33.675769 -117.870270 207 59ft 0kts
08-Nov-19 01:46 33.676048 -117.870816 24 59ft 0kts

Navigation Log

Ident Type
Flight plan parsing failed, navigation log unavailable